EDT,Max TemperatureF,Mean TemperatureF,Min TemperatureF,Max Dew PointF,MeanDew PointF,Min DewpointF,Max Humidity, Mean Humidity, Min Humidity, Max Sea Level PressureIn, Mean Sea Level PressureIn, Min Sea Level PressureIn, Max VisibilityMiles, Mean VisibilityMiles, Min VisibilityMiles, Max Wind SpeedMPH, Mean Wind SpeedMPH, Max Gust SpeedMPH,PrecipitationIn, CloudCover, Events, WindDirDegrees
2013-3-1,39,36,32,34,29,24,92,78,64,30.00,29.95,29.90,10,9,1,9,5,13,0.03,8,Rain-Snow,329
2013-3-2,32,30,28,23,20,18,78,68,58,30.07,30.01,29.97,10,8,2,12,7,16,0.01,8,Snow,338
2013-3-3,32,30,27,21,19,15,81,67,53,30.10,30.05,30.01,10,9,2,14,6,17,T,8,Snow,305
2013-3-4,45,32,19,28,17,12,91,59,27,30.21,30.12,30.04,10,10,7,7,2,,0.02,3,Rain,195
2013-3-5,49,41,32,45,34,28,93,82,71,30.05,29.76,29.48,10,6,1,28,7,40,0.59,8,Rain-Snow,85
2013-3-6,36,33,30,31,28,26,92,84,75,30.24,29.93,29.66,10,5,1,22,9,35,0.05,8,Rain-Snow,264
2013-3-7,40,36,32,29,28,27,85,75,64,30.38,30.31,30.22,10,9,6,9,6,15,0.00,8,,274
2013-3-8,48,38,27,29,25,23,92,65,38,30.47,30.40,30.36,10,8,2,10,3,14,0.00,2,,332
2013-3-9,64,45,26,32,27,23,85,55,25,30.38,30.26,30.12,10,10,10,9,3,14,0.00,0,,71
2013-3-10,77,62,46,34,30,26,60,38,16,30.12,30.02,29.90,10,10,10,14,5,21,0.00,0,,148
2013-3-11,65,54,43,52,40,29,86,57,27,29.90,29.80,29.70,10,8,3,24,10,35,0.29,5,Rain,190
2013-3-12,44,40,36,36,30,27,82,69,55,30.04,29.98,29.87,10,10,9,14,6,21,0.00,7,,251
2013-3-13,40,35,30,29,23,17,75,63,51,30.30,30.14,30.03,10,9,0,18,8,26,T,7,Snow,269
2013-3-14,45,35,24,25,18,11,75,50,25,30.38,30.30,30.22,10,9,2,14,6,20,0.01,2,Snow,259
2013-3-15,59,45,30,36,27,17,63,50,37,30.19,30.01,29.85,10,10,10,14,5,20,0.00,2,,214
2013-3-16,73,58,43,50,43,35,92,67,41,29.99,29.76,29.65,10,9,4,22,10,33,0.10,5,Rain,326
2013-3-17,43,38,33,34,32,30,100,85,70,30.14,30.07,29.97,10,4,0,14,6,20,0.69,8,Fog-Rain-Snow,32
2013-3-18,54,45,35,52,42,33,100,92,83,29.99,29.79,29.67,10,6,0,17,8,28,1.10,7,Fog-Rain-Thunderstorm,147
2013-3-19,50,44,38,42,22,6,80,50,20,30.10,29.97,29.81,10,10,10,28,12,52,0.00,2,,252
2013-3-20,49,39,28,19,15,10,63,46,28,30.11,30.00,29.86,10,10,10,25,10,39,0.00,3,,252
2013-3-21,32,27,22,19,12,7,68,54,39,30.06,29.99,29.94,10,7,1,16,6,23,0.01,7,Snow,299
2013-3-22,47,33,18,15,13,11,80,53,25,30.11,30.05,29.99,10,10,10,20,4,29,0.00,0,,218
2013-3-23,54,42,29,25,20,16,72,48,24,30.07,30.01,29.87,10,10,10,9,2,22,0.00,4,,46
2013-3-24,42,40,37,38,30,19,100,72,44,29.88,29.59,29.40,10,6,1,14,7,20,0.67,6,Rain,53
2013-3-25,41,37,32,37,30,26,92,84,75,29.90,29.62,29.43,10,4,1,22,11,29,0.10,8,Rain-Snow,241
2013-3-26,42,38,33,32,30,28,89,77,65,30.22,30.05,29.90,10,6,1,16,8,23,0.07,8,Rain-Snow,288
2013-3-27,44,38,31,29,26,24,75,62,49,30.30,30.27,30.22,10,10,10,16,7,23,T,6,Rain,269
2013-3-28,53,42,31,27,24,22,70,51,32,30.34,30.30,30.27,10,10,10,14,6,18,0.00,1,,311
2013-3-29,59,43,27,28,25,24,85,57,28,30.33,30.27,30.20,10,10,10,13,3,26,0.00,4,,252
2013-3-30,62,47,32,37,31,27,92,60,27,30.26,30.14,29.97,10,10,7,10,3,33,0.00,1,,204
2013-3-31,55,51,46,50,45,33,96,76,56,29.95,29.83,29.80,10,7,1,14,5,21,0.15,7,Rain,221